Time;durP1;ratioP1;P1;durP2;ratioP2;P2;SDS_P1;SDS_P2;PMS_P1;PMS_P2;Temp;Humidity;BMP_temperature;BMP_pressure;BME280_temperature;BME280_humidity;BME280_pressure;Samples;Min_cycle;Max_cycle;Signal;HPM_P1;HPM_P2
2022/01/25 00:08:39;;;;;;;118.88;49.72;;;5.70;99.90;;;;;;5045762;28;20036;-68
2022/01/25 00:27:39;;;;;;;129.50;51.33;;;5.60;99.90;;;;;;5035549;28;20430;-68
2022/01/25 00:30:25;;;;;;;119.75;49.83;;;5.70;99.90;;;;;;5035072;28;20113;-68
2022/01/25 00:32:51;;;;;;;132.45;52.83;;;5.70;99.90;;;;;;5061463;28;20367;-67
2022/01/25 00:35:17;;;;;;;120.22;49.92;;;5.70;99.90;;;;;;5069298;28;20033;-68
2022/01/25 00:37:45;;;;;;;117.10;50.35;;;5.70;99.90;;;;;;5062520;28;20501;-68
2022/01/25 00:40:11;;;;;;;115.00;49.53;;;5.70;99.90;;;;;;5054013;28;20530;-67
2022/01/25 00:42:37;;;;;;;116.95;51.08;;;5.70;99.90;;;;;;5055073;28;20033;-68
2022/01/25 00:45:03;;;;;;;128.05;50.38;;;5.70;99.90;;;;;;5033429;28;20029;-68
2022/01/25 00:47:29;;;;;;;115.72;50.08;;;5.70;99.90;;;;;;5027353;28;20155;-68
2022/01/25 00:49:55;;;;;;;123.90;49.75;;;5.60;99.90;;;;;;5025108;28;20034;-68
2022/01/25 00:53:54;;;;;;;117.43;48.70;;;5.60;99.90;;;;;;5043755;28;20021;-68
2022/01/25 00:55:10;;;;;;;118.43;50.10;;;5.60;99.90;;;;;;5048807;28;20544;-68
2022/01/25 00:57:36;;;;;;;117.03;49.28;;;5.60;99.90;;;;;;5044961;28;20033;-68
2022/01/25 01:00:03;;;;;;;110.13;48.28;;;5.60;99.90;;;;;;5043408;28;20052;-68
2022/01/25 01:02:28;;;;;;;119.82;48.85;;;5.60;99.90;;;;;;5041753;28;20430;-68
2022/01/25 01:04:54;;;;;;;112.57;48.72;;;5.60;99.90;;;;;;5055600;28;20074;-67
2022/01/25 01:07:19;;;;;;;123.72;49.38;;;5.60;99.90;;;;;;5067936;28;20073;-67
2022/01/25 01:09:48;;;;;;;118.55;48.55;;;5.60;99.90;;;;;;5074212;28;20039;-67
2022/01/25 01:12:30;;;;;;;108.38;47.45;;;5.50;99.90;;;;;;5074714;28;20024;-67
2022/01/25 01:31:19;;;;;;;110.95;48.40;;;5.40;99.90;;;;;;5074799;28;20116;-70
2022/01/25 01:39:26;;;;;;;112.90;47.67;;;5.50;99.90;;;;;;5050442;28;20031;-69
2022/01/25 01:44:21;;;;;;;114.75;48.70;;;5.40;99.90;;;;;;5073786;28;20424;-68
2022/01/25 01:47:05;;;;;;;114.35;50.30;;;5.40;99.90;;;;;;5074125;28;20070;-68
2022/01/25 01:49:38;;;;;;;117.68;50.33;;;5.30;99.90;;;;;;5073456;28;20032;-68
2022/01/25 01:52:05;;;;;;;117.07;50.42;;;5.30;99.90;;;;;;5054764;28;20473;-68
2022/01/25 01:54:31;;;;;;;111.93;48.17;;;5.40;99.90;;;;;;5073540;28;20024;-69
2022/01/25 01:56:56;;;;;;;122.20;51.38;;;5.40;99.90;;;;;;5055886;28;20031;-68
2022/01/25 01:59:22;;;;;;;117.78;51.78;;;5.30;99.90;;;;;;5073997;28;20040;-68
2022/01/25 02:01:51;;;;;;;112.35;49.10;;;5.30;99.90;;;;;;5073866;28;20067;-68
2022/01/25 02:04:18;;;;;;;118.20;49.90;;;5.30;99.90;;;;;;5073459;28;20035;-68
2022/01/25 02:06:43;;;;;;;119.57;49.55;;;5.30;99.90;;;;;;5073786;28;20099;-68
2022/01/25 02:09:10;;;;;;;124.45;52.17;;;5.20;99.90;;;;;;5073221;28;20466;-68
2022/01/25 02:11:36;;;;;;;117.10;49.50;;;5.30;99.90;;;;;;5096315;22;20052;-69
2022/01/25 02:14:06;;;;;;;120.25;50.50;;;5.30;99.90;;;;;;5076203;28;20074;-69
2022/01/25 02:24:42;;;;;;;124.28;51.70;;;5.20;99.90;;;;;;5055336;28;20067;-69
2022/01/25 02:27:08;;;;;;;124.25;50.53;;;5.20;99.90;;;;;;5057676;28;20110;-69
2022/01/25 02:29:35;;;;;;;121.07;50.47;;;5.20;99.90;;;;;;5055628;28;20051;-70
2022/01/25 02:32:01;;;;;;;121.00;50.58;;;5.30;99.90;;;;;;5059701;28;20099;-69
2022/01/25 02:34:27;;;;;;;120.72;49.10;;;5.30;99.90;;;;;;5056844;28;20032;-70
2022/01/25 02:37:06;;;;;;;113.95;49.28;;;5.30;99.90;;;;;;5055711;28;20017;-69
2022/01/25 02:39:33;;;;;;;119.60;49.75;;;5.30;99.90;;;;;;5055283;28;20053;-70
2022/01/25 02:41:59;;;;;;;122.32;52.00;;;5.30;99.90;;;;;;5055578;28;20052;-70
2022/01/25 02:44:27;;;;;;;125.95;50.67;;;5.30;99.90;;;;;;5054683;28;20021;-70
2022/01/25 02:49:34;;;;;;;125.45;50.83;;;5.30;99.90;;;;;;5054897;28;20064;-70
2022/01/25 02:52:02;;;;;;;120.30;52.30;;;5.40;99.90;;;;;;5054238;28;20045;-70
2022/01/25 02:54:28;;;;;;;128.32;51.70;;;5.40;99.90;;;;;;5052953;28;20116;-69
2022/01/25 02:56:54;;;;;;;126.05;52.38;;;5.40;99.90;;;;;;5054669;28;20111;-70
2022/01/25 02:59:21;;;;;;;129.65;53.03;;;5.30;99.90;;;;;;5037505;28;20025;-70
2022/01/25 03:01:48;;;;;;;124.13;52.55;;;5.30;99.90;;;;;;5055902;28;20040;-70
2022/01/25 03:04:16;;;;;;;125.38;51.72;;;5.30;99.90;;;;;;5059259;28;20087;-70
2022/01/25 03:06:43;;;;;;;131.13;52.75;;;5.30;99.90;;;;;;5059588;28;20027;-69
2022/01/25 03:09:08;;;;;;;127.13;51.83;;;5.50;99.90;;;;;;5060207;28;20021;-69
2022/01/25 03:11:34;;;;;;;128.00;53.10;;;5.50;99.90;;;;;;5060891;28;20033;-69
2022/01/25 03:14:03;;;;;;;125.20;52.25;;;5.40;99.90;;;;;;5044336;28;20063;-69
2022/01/25 03:16:39;;;;;;;124.68;51.75;;;5.40;99.90;;;;;;5062681;28;20025;-70
2022/01/25 03:21:53;;;;;;;137.90;53.53;;;5.30;99.90;;;;;;5060097;28;20036;-69
2022/01/25 03:24:19;;;;;;;128.77;52.20;;;5.40;99.90;;;;;;5057379;28;20393;-69
2022/01/25 03:26:44;;;;;;;123.65;51.90;;;5.40;99.90;;;;;;5057408;28;20029;-69
2022/01/25 03:29:10;;;;;;;122.43;50.83;;;5.50;99.90;;;;;;5057421;28;20555;-69
2022/01/25 03:31:36;;;;;;;138.45;53.97;;;5.50;99.90;;;;;;5057120;28;20062;-70
2022/01/25 03:34:02;;;;;;;130.13;51.80;;;5.50;99.90;;;;;;5057726;28;20028;-70
2022/01/25 03:36:27;;;;;;;122.20;52.83;;;5.40;99.90;;;;;;5058337;28;20079;-69
2022/01/25 03:38:53;;;;;;;133.48;54.28;;;5.40;99.90;;;;;;5058291;28;20033;-70
2022/01/25 03:41:19;;;;;;;130.13;53.40;;;5.40;99.90;;;;;;5058924;28;20025;-69
2022/01/25 03:43:52;;;;;;;126.05;51.58;;;5.40;99.90;;;;;;5056845;28;20025;-70
2022/01/25 03:46:29;;;;;;;126.68;52.17;;;5.40;99.90;;;;;;5038976;28;20025;-70
2022/01/25 03:51:38;;;;;;;128.80;51.83;;;5.40;99.90;;;;;;5056713;28;20071;-68
2022/01/25 03:54:05;;;;;;;127.72;53.25;;;5.40;99.90;;;;;;5057292;28;20025;-69
2022/01/25 03:56:31;;;;;;;132.07;51.75;;;5.50;99.90;;;;;;5056658;28;20036;-70
2022/01/25 03:58:57;;;;;;;129.13;52.53;;;5.40;99.90;;;;;;5057081;28;20029;-69
2022/01/25 04:01:22;;;;;;;123.95;52.05;;;5.40;99.90;;;;;;5038644;28;20029;-69
2022/01/25 04:03:57;;;;;;;116.47;49.47;;;5.40;99.90;;;;;;5057092;28;20075;-69
2022/01/25 04:06:25;;;;;;;122.35;50.42;;;5.40;99.90;;;;;;5056581;28;20104;-69
2022/01/25 04:08:51;;;;;;;124.55;51.58;;;5.30;99.90;;;;;;5057131;28;20073;-69
2022/01/25 04:11:16;;;;;;;123.95;49.88;;;5.30;99.90;;;;;;5056080;28;20032;-69
2022/01/25 04:13:42;;;;;;;121.57;50.70;;;5.30;99.90;;;;;;5055885;28;20029;-69
2022/01/25 04:16:13;;;;;;;129.82;51.63;;;5.40;99.90;;;;;;5056742;28;20017;-70
2022/01/25 04:19:00;;;;;;;131.15;52.35;;;5.40;99.90;;;;;;5057045;28;20048;-69
2022/01/25 04:26:50;;;;;;;121.00;50.00;;;5.40;99.90;;;;;;5057616;28;20047;-69
2022/01/25 04:29:16;;;;;;;122.88;50.40;;;5.30;99.90;;;;;;5056915;28;20029;-70
2022/01/25 04:31:42;;;;;;;127.13;53.33;;;5.30;99.90;;;;;;5056997;28;20021;-70
2022/01/25 04:34:36;;;;;;;128.60;51.70;;;5.20;99.90;;;;;;5056593;28;20021;-70
2022/01/25 04:51:01;;;;;;;126.07;49.78;;;5.30;99.90;;;;;;5056770;28;20066;-69
2022/01/25 04:56:03;;;;;;;130.80;50.72;;;5.30;99.90;;;;;;5056915;28;20018;-69
2022/01/25 04:58:38;;;;;;;130.90;51.35;;;5.40;99.90;;;;;;5056231;28;20021;-69
2022/01/25 05:01:04;;;;;;;121.68;49.47;;;5.30;99.90;;;;;;5055833;28;20032;-70
2022/01/25 05:03:44;;;;;;;124.57;49.35;;;5.30;99.90;;;;;;5038097;28;20017;-69
2022/01/25 05:06:14;;;;;;;118.45;47.58;;;5.40;99.90;;;;;;5056054;28;20493;-69
2022/01/25 05:08:45;;;;;;;117.05;50.13;;;5.40;99.90;;;;;;5056570;28;20029;-69
2022/01/25 05:11:20;;;;;;;127.82;50.78;;;5.30;99.90;;;;;;5056313;28;20055;-70
2022/01/25 05:13:59;;;;;;;126.60;51.60;;;5.30;99.90;;;;;;5056346;28;20029;-69
2022/01/25 05:19:04;;;;;;;123.45;49.45;;;5.30;99.90;;;;;;5055608;28;20067;-70
2022/01/25 05:24:14;;;;;;;122.80;50.97;;;5.40;99.90;;;;;;5056367;28;20032;-70
2022/01/25 05:26:40;;;;;;;124.32;49.70;;;5.40;99.90;;;;;;5055223;28;20032;-70
2022/01/25 05:29:07;;;;;;;126.13;49.08;;;5.40;99.90;;;;;;5055132;28;20032;-70
2022/01/25 05:31:33;;;;;;;122.68;49.58;;;5.30;99.90;;;;;;5055060;28;20419;-70
2022/01/25 05:33:58;;;;;;;116.57;48.53;;;5.30;99.90;;;;;;5054939;28;20102;-70
2022/01/25 05:36:25;;;;;;;120.47;48.88;;;5.30;99.90;;;;;;5054813;28;20390;-70
2022/01/25 05:38:51;;;;;;;122.00;48.28;;;5.40;99.90;;;;;;5054780;28;20493;-70
2022/01/25 05:41:16;;;;;;;121.03;46.92;;;5.30;99.90;;;;;;5036770;28;20039;-70
2022/01/25 05:44:08;;;;;;;124.05;48.13;;;5.30;99.90;;;;;;5036941;28;20559;-70
2022/01/25 05:46:43;;;;;;;125.35;50.22;;;5.30;99.90;;;;;;5054947;28;20476;-70
2022/01/25 05:49:08;;;;;;;126.22;49.55;;;5.30;99.90;;;;;;5054837;28;20025;-70
2022/01/25 05:51:34;;;;;;;125.72;49.08;;;5.20;99.90;;;;;;5054636;28;20028;-70
2022/01/25 05:54:00;;;;;;;124.28;48.60;;;5.20;99.90;;;;;;5055641;28;20377;-70
2022/01/25 05:56:25;;;;;;;121.70;48.75;;;5.20;99.90;;;;;;5055092;28;20393;-70
2022/01/25 05:58:51;;;;;;;120.07;46.97;;;5.20;99.90;;;;;;5054981;28;20494;-70
2022/01/25 06:01:18;;;;;;;118.82;48.03;;;5.20;99.90;;;;;;5054768;28;20037;-70
2022/01/25 06:03:45;;;;;;;117.65;47.47;;;5.20;99.90;;;;;;5054840;28;20028;-70
2022/01/25 06:06:11;;;;;;;124.20;47.58;;;5.20;99.90;;;;;;5054771;28;20386;-70
2022/01/25 06:08:37;;;;;;;116.57;48.05;;;5.20;99.90;;;;;;5054463;28;20029;-71
2022/01/25 06:11:03;;;;;;;125.18;48.50;;;5.20;99.90;;;;;;5054467;28;20101;-70
2022/01/25 06:13:28;;;;;;;117.72;48.60;;;5.20;99.90;;;;;;5036832;28;20367;-70
2022/01/25 06:15:54;;;;;;;122.30;47.83;;;5.20;99.90;;;;;;5054956;28;20474;-70
2022/01/25 06:18:19;;;;;;;116.38;45.40;;;5.10;99.90;;;;;;5038098;28;20021;-70
2022/01/25 06:20:45;;;;;;;121.55;46.78;;;5.10;99.90;;;;;;5036902;28;20035;-70
2022/01/25 06:23:10;;;;;;;122.15;48.67;;;5.20;99.90;;;;;;5055280;28;20056;-70
2022/01/25 06:25:36;;;;;;;114.20;46.10;;;5.20;99.90;;;;;;5055002;28;20060;-70
2022/01/25 06:28:02;;;;;;;115.00;46.72;;;5.20;99.90;;;;;;5054407;28;20545;-70
2022/01/25 06:30:27;;;;;;;108.07;43.75;;;5.10;99.90;;;;;;5054251;28;20078;-70
2022/01/25 06:32:53;;;;;;;110.30;44.95;;;5.20;99.90;;;;;;5054842;28;20032;-71
2022/01/25 06:35:19;;;;;;;106.50;43.88;;;5.30;99.90;;;;;;5054298;28;20056;-70
2022/01/25 06:37:46;;;;;;;112.90;45.45;;;5.30;99.90;;;;;;5040336;28;20025;-70
2022/01/25 06:40:12;;;;;;;111.32;45.50;;;5.40;99.90;;;;;;5060236;28;20032;-70
2022/01/25 06:42:39;;;;;;;108.95;44.72;;;5.40;99.90;;;;;;5061179;28;20025;-70
2022/01/25 06:45:11;;;;;;;115.03;45.90;;;5.30;99.90;;;;;;5043294;28;20478;-70
2022/01/25 06:47:37;;;;;;;113.75;45.88;;;5.30;99.90;;;;;;5061581;28;20097;-71
2022/01/25 06:50:04;;;;;;;116.90;45.35;;;5.30;99.90;;;;;;5061445;28;20100;-70
2022/01/25 06:52:29;;;;;;;118.97;48.20;;;5.20;99.90;;;;;;5061523;28;20032;-70
2022/01/25 06:54:55;;;;;;;115.93;46.40;;;5.20;99.90;;;;;;5061472;28;20025;-70
2022/01/25 06:57:20;;;;;;;111.25;43.63;;;5.20;99.90;;;;;;5043753;28;20425;-70
2022/01/25 06:59:46;;;;;;;107.93;46.22;;;5.20;99.90;;;;;;5043911;28;20032;-70
2022/01/25 07:02:13;;;;;;;103.53;43.97;;;5.30;99.90;;;;;;5062489;28;20106;-70
2022/01/25 07:04:38;;;;;;;107.18;43.92;;;5.30;99.90;;;;;;5061692;28;20053;-70
2022/01/25 07:07:04;;;;;;;114.65;45.13;;;5.30;99.90;;;;;;5044401;28;20346;-70
2022/01/25 07:09:30;;;;;;;117.15;45.75;;;5.30;99.90;;;;;;5063249;28;20051;-70
2022/01/25 07:11:56;;;;;;;109.53;44.35;;;5.30;99.90;;;;;;5064270;28;20187;-70
2022/01/25 07:14:21;;;;;;;113.10;46.00;;;5.30;99.90;;;;;;5063524;28;20021;-70
2022/01/25 07:16:47;;;;;;;108.53;45.20;;;5.30;99.90;;;;;;5067128;28;20024;-70
2022/01/25 07:19:13;;;;;;;115.32;44.85;;;5.30;99.90;;;;;;5068457;28;20025;-69
2022/01/25 07:21:39;;;;;;;113.50;44.17;;;5.30;99.90;;;;;;5067892;28;20028;-69
2022/01/25 07:24:05;;;;;;;109.30;44.60;;;5.30;99.90;;;;;;5068738;28;20032;-70
2022/01/25 07:26:31;;;;;;;111.38;45.83;;;5.30;99.90;;;;;;5068925;28;20025;-70
2022/01/25 07:28:56;;;;;;;114.72;45.03;;;5.30;99.90;;;;;;5065815;28;20091;-69
2022/01/25 07:31:22;;;;;;;113.13;44.47;;;5.30;99.90;;;;;;5062421;28;20458;-69
2022/01/25 07:33:48;;;;;;;110.53;45.42;;;5.30;99.90;;;;;;5063084;28;20368;-69
2022/01/25 07:36:14;;;;;;;110.18;45.33;;;5.30;99.90;;;;;;5062052;28;20474;-69
2022/01/25 07:38:39;;;;;;;115.15;44.17;;;5.30;99.90;;;;;;5062284;28;20112;-69
2022/01/25 07:41:05;;;;;;;110.75;45.05;;;5.30;99.90;;;;;;5044490;28;20081;-69
2022/01/25 07:43:30;;;;;;;115.20;45.72;;;5.20;99.90;;;;;;5061736;28;20029;-69
2022/01/25 07:45:58;;;;;;;101.05;40.17;;;5.30;99.90;;;;;;5061909;28;20373;-69
2022/01/25 07:48:24;;;;;;;105.90;40.83;;;5.20;99.90;;;;;;5059940;28;20112;-69
2022/01/25 07:50:50;;;;;;;111.28;44.65;;;5.20;99.90;;;;;;5057878;28;20473;-69
2022/01/25 07:53:16;;;;;;;115.35;43.70;;;5.20;99.90;;;;;;5058729;28;20041;-69
2022/01/25 07:55:41;;;;;;;108.82;43.95;;;5.20;99.90;;;;;;5058135;28;20036;-69
2022/01/25 07:58:07;;;;;;;104.75;43.08;;;5.20;99.90;;;;;;5058281;28;20029;-70
2022/01/25 08:00:33;;;;;;;108.55;44.50;;;5.20;99.90;;;;;;5057655;28;20108;-69
2022/01/25 08:02:59;;;;;;;111.72;46.35;;;5.20;99.90;;;;;;5057866;28;20036;-70
2022/01/25 08:05:26;;;;;;;99.82;41.28;;;5.20;99.90;;;;;;5056766;28;20025;-70
2022/01/25 08:07:52;;;;;;;107.63;42.55;;;5.20;99.90;;;;;;5058223;28;20050;-70
2022/01/25 08:10:18;;;;;;;97.18;40.80;;;5.30;99.90;;;;;;5058210;28;20032;-70
2022/01/25 08:12:44;;;;;;;106.97;42.63;;;5.30;99.90;;;;;;5058799;28;20029;-70
2022/01/25 08:15:12;;;;;;;103.93;43.60;;;5.30;99.90;;;;;;5058911;28;20028;-70
2022/01/25 08:17:37;;;;;;;106.43;44.33;;;5.30;99.90;;;;;;5058901;28;20024;-69
2022/01/25 08:20:03;;;;;;;102.50;40.08;;;5.40;99.90;;;;;;5057034;28;20025;-70
2022/01/25 08:22:29;;;;;;;102.78;41.60;;;5.30;99.90;;;;;;5056799;28;20078;-70
2022/01/25 08:24:55;;;;;;;94.63;39.13;;;5.30;99.90;;;;;;5039898;28;20367;-70
2022/01/25 08:27:22;;;;;;;102.28;40.60;;;5.30;99.90;;;;;;5056451;28;20040;-70
2022/01/25 08:29:49;;;;;;;104.03;41.13;;;5.30;99.90;;;;;;5059692;28;20422;-70
2022/01/25 08:32:14;;;;;;;103.82;40.20;;;5.30;99.90;;;;;;5056752;28;20450;-70
2022/01/25 08:34:40;;;;;;;105.35;42.15;;;5.40;99.90;;;;;;5085958;22;20462;-73
2022/01/25 08:37:06;;;;;;;106.88;40.80;;;5.40;99.90;;;;;;5075380;28;20032;-74
2022/01/25 08:39:32;;;;;;;95.45;39.25;;;5.50;99.90;;;;;;5075508;28;20511;-73
2022/01/25 08:41:57;;;;;;;98.40;39.55;;;5.40;99.90;;;;;;5075288;28;20441;-73
2022/01/25 08:44:23;;;;;;;101.10;39.88;;;5.50;99.90;;;;;;5059278;28;20029;-74
2022/01/25 08:46:49;;;;;;;97.88;40.25;;;5.50;99.90;;;;;;5053728;28;20043;-73
2022/01/25 08:49:15;;;;;;;97.78;40.38;;;5.50;99.90;;;;;;5048765;28;20022;-74
2022/01/25 08:51:40;;;;;;;94.75;38.83;;;5.50;99.90;;;;;;5030156;28;20049;-73
2022/01/25 08:54:06;;;;;;;92.50;38.42;;;5.50;99.90;;;;;;5043294;28;20037;-73
2022/01/25 08:56:32;;;;;;;91.25;39.15;;;5.50;99.90;;;;;;5042539;28;20030;-73
2022/01/25 08:58:58;;;;;;;99.35;39.10;;;5.50;99.90;;;;;;5044580;28;20104;-72
2022/01/25 09:01:24;;;;;;;98.57;38.13;;;5.50;99.90;;;;;;5044484;28;20052;-73
2022/01/25 09:03:50;;;;;;;95.13;37.88;;;5.50;99.90;;;;;;5036875;28;20046;-74
2022/01/25 09:06:15;;;;;;;91.10;36.95;;;5.60;99.90;;;;;;5055029;28;20021;-74
2022/01/25 09:08:41;;;;;;;91.88;37.33;;;5.60;99.90;;;;;;5055306;28;20040;-73
2022/01/25 09:11:07;;;;;;;94.60;37.08;;;5.60;99.90;;;;;;5055459;28;20021;-73
2022/01/25 09:13:33;;;;;;;88.47;36.28;;;5.60;99.90;;;;;;5037705;28;20021;-74
2022/01/25 09:16:00;;;;;;;94.10;38.83;;;5.60;99.90;;;;;;5055278;28;20113;-73
2022/01/25 09:18:26;;;;;;;97.40;40.92;;;5.70;99.90;;;;;;5055077;28;20047;-73
2022/01/25 09:20:52;;;;;;;86.97;37.92;;;5.70;99.90;;;;;;5055461;28;20470;-73
2022/01/25 09:23:19;;;;;;;98.50;38.25;;;5.70;99.90;;;;;;5052824;28;20036;-73
2022/01/25 09:25:49;;;;;;;86.60;37.65;;;5.70;99.90;;;;;;5058693;28;20108;-73
2022/01/25 09:28:16;;;;;;;101.47;40.10;;;5.80;99.90;;;;;;5065203;28;20501;-74
2022/01/25 09:30:42;;;;;;;96.93;38.22;;;5.80;99.90;;;;;;5059531;28;20313;-74
2022/01/25 09:33:08;;;;;;;91.05;37.20;;;5.90;99.90;;;;;;5049899;28;20026;-74
2022/01/25 09:35:33;;;;;;;94.63;38.53;;;5.80;99.90;;;;;;5054774;28;20561;-73
2022/01/25 09:37:59;;;;;;;98.00;38.42;;;5.80;99.90;;;;;;5058395;28;20025;-74
2022/01/25 09:40:25;;;;;;;96.97;38.58;;;5.90;99.90;;;;;;5052989;28;20057;-74
2022/01/25 09:42:54;;;;;;;95.40;39.10;;;5.80;99.90;;;;;;5053220;28;20018;-74
2022/01/25 09:45:20;;;;;;;101.85;39.17;;;5.80;99.90;;;;;;5054097;28;20474;-73
2022/01/25 09:47:47;;;;;;;90.88;39.28;;;5.90;99.90;;;;;;5054172;28;20040;-73
2022/01/25 09:50:14;;;;;;;93.07;37.95;;;5.90;99.90;;;;;;5052847;28;20025;-72
2022/01/25 09:52:43;;;;;;;89.00;36.78;;;5.90;99.90;;;;;;5054162;28;20090;-73
2022/01/25 09:55:12;;;;;;;85.47;36.90;;;6.00;99.90;;;;;;5053965;28;20557;-74
2022/01/25 09:57:38;;;;;;;86.13;37.33;;;6.00;99.90;;;;;;5053795;28;20056;-73
2022/01/25 10:00:07;;;;;;;90.18;36.33;;;6.00;99.90;;;;;;5048951;28;20063;-72
2022/01/25 10:02:37;;;;;;;95.00;38.75;;;5.90;99.90;;;;;;5040191;28;20117;-73
2022/01/25 10:05:37;;;;;;;88.18;37.45;;;5.90;99.90;;;;;;5046441;28;20025;-73
2022/01/25 10:08:07;;;;;;;84.35;35.65;;;5.90;99.90;;;;;;5005970;28;20033;-73
2022/01/25 10:10:36;;;;;;;85.53;35.47;;;6.00;99.90;;;;;;5044251;28;20023;-73
2022/01/25 10:13:20;;;;;;;82.15;34.53;;;6.10;99.90;;;;;;5041060;28;20017;-73
2022/01/25 10:15:46;;;;;;;81.45;36.10;;;6.00;99.90;;;;;;5041090;28;20041;-73
2022/01/25 10:18:12;;;;;;;85.30;34.03;;;6.10;99.90;;;;;;5043865;28;20105;-73
2022/01/25 10:20:41;;;;;;;83.63;35.92;;;6.10;99.90;;;;;;5030814;28;20051;-73
2022/01/25 10:23:30;;;;;;;85.85;36.42;;;6.20;99.90;;;;;;5025451;28;20025;-72
2022/01/25 10:25:59;;;;;;;91.15;34.78;;;6.10;99.90;;;;;;5043528;28;20100;-73
2022/01/25 10:28:28;;;;;;;79.78;34.85;;;6.10;99.90;;;;;;5040979;28;20426;-72
2022/01/25 10:30:59;;;;;;;93.13;35.53;;;6.10;99.90;;;;;;5040848;28;20385;-73
2022/01/25 10:33:35;;;;;;;85.80;35.22;;;6.20;99.90;;;;;;5023661;28;20032;-73
2022/01/25 10:36:11;;;;;;;75.20;32.85;;;6.20;99.90;;;;;;5041400;28;20045;-73
2022/01/25 10:38:37;;;;;;;89.57;38.05;;;6.20;99.90;;;;;;5036729;28;20028;-75
2022/01/25 10:41:06;;;;;;;83.38;34.80;;;6.30;99.90;;;;;;5034012;28;20057;-74
2022/01/25 10:43:33;;;;;;;93.00;36.15;;;6.30;99.90;;;;;;5015808;28;20056;-74
2022/01/25 10:46:30;;;;;;;85.55;34.22;;;6.30;99.90;;;;;;5016107;28;20028;-74
2022/01/25 10:48:56;;;;;;;87.72;35.15;;;6.20;99.90;;;;;;5035166;28;20036;-73
2022/01/25 10:51:27;;;;;;;84.25;36.25;;;6.20;99.90;;;;;;5034720;28;20033;-74
2022/01/25 10:54:09;;;;;;;91.63;35.90;;;6.20;99.90;;;;;;5039673;28;20133;-73
2022/01/25 10:56:59;;;;;;;81.35;33.50;;;6.20;99.90;;;;;;5043401;28;20448;-73
2022/01/25 10:59:28;;;;;;;87.93;37.63;;;6.20;99.90;;;;;;5041039;28;20021;-73
2022/01/25 11:01:57;;;;;;;78.75;32.90;;;6.30;99.90;;;;;;5043501;28;20021;-74
2022/01/25 11:04:31;;;;;;;78.03;33.55;;;6.30;99.90;;;;;;5043634;28;20021;-73
2022/01/25 11:07:00;;;;;;;80.40;33.65;;;6.20;99.90;;;;;;5034365;28;20449;-75
2022/01/25 11:09:29;;;;;;;85.03;34.45;;;6.00;99.90;;;;;;5033601;28;20049;-74
2022/01/25 11:11:58;;;;;;;101.07;38.42;;;6.00;99.90;;;;;;5041040;28;20033;-74
2022/01/25 11:17:08;;;;;;;85.22;34.72;;;6.10;99.90;;;;;;5043085;28;20036;-74
2022/01/25 11:19:34;;;;;;;86.20;35.92;;;6.10;99.90;;;;;;5050589;28;20389;-74
2022/01/25 11:22:00;;;;;;;88.70;36.22;;;6.10;99.90;;;;;;5037030;28;20024;-74
2022/01/25 11:24:31;;;;;;;88.70;34.42;;;6.20;99.90;;;;;;5026254;28;20029;-74
2022/01/25 11:27:02;;;;;;;91.22;35.40;;;6.20;99.90;;;;;;5036997;28;20160;-74
2022/01/25 11:29:28;;;;;;;89.82;35.55;;;6.30;99.90;;;;;;5019469;28;20450;-74
2022/01/25 11:32:10;;;;;;;88.40;36.05;;;6.30;99.90;;;;;;5019164;28;20120;-75
2022/01/25 11:34:37;;;;;;;81.38;33.75;;;6.30;99.90;;;;;;5036941;28;20479;-74
2022/01/25 11:37:07;;;;;;;92.40;35.13;;;6.30;99.90;;;;;;5037173;28;20034;-74
2022/01/25 11:39:34;;;;;;;80.90;34.63;;;6.30;99.90;;;;;;5037604;28;20432;-74
2022/01/25 11:42:06;;;;;;;90.30;35.10;;;6.30;99.90;;;;;;5038032;28;20047;-74
2022/01/25 11:44:33;;;;;;;78.15;31.92;;;6.40;99.90;;;;;;5037668;28;20028;-74
2022/01/25 11:47:12;;;;;;;87.57;34.85;;;6.30;99.90;;;;;;5039646;28;20117;-74
2022/01/25 11:50:11;;;;;;;78.40;32.15;;;6.30;99.90;;;;;;5041767;28;20031;-73
2022/01/25 11:52:50;;;;;;;80.45;32.50;;;6.30;99.90;;;;;;5024674;28;20034;-73
2022/01/25 11:55:24;;;;;;;81.57;33.53;;;6.30;99.90;;;;;;5029894;28;20022;-74
2022/01/25 11:57:52;;;;;;;73.55;30.40;;;6.30;99.90;;;;;;5041318;28;20104;-74
2022/01/25 12:00:21;;;;;;;73.47;30.83;;;6.30;99.90;;;;;;5036549;28;20029;-75
2022/01/25 12:02:50;;;;;;;72.40;30.05;;;6.30;99.90;;;;;;5036433;28;20033;-73
2022/01/25 12:05:26;;;;;;;69.05;29.88;;;6.20;99.90;;;;;;5039719;28;20099;-73
2022/01/25 12:08:09;;;;;;;71.28;29.75;;;6.10;99.90;;;;;;5052151;28;20029;-74
2022/01/25 12:10:47;;;;;;;76.07;30.33;;;6.10;99.90;;;;;;5056822;28;20400;-74
2022/01/25 12:13:27;;;;;;;79.38;32.78;;;6.10;99.90;;;;;;5056401;28;20115;-73
2022/01/25 12:16:28;;;;;;;73.22;31.38;;;6.10;99.90;;;;;;5056478;28;20025;-74
2022/01/25 12:18:59;;;;;;;73.53;29.52;;;6.20;99.90;;;;;;4980856;28;20037;-72
2022/01/25 12:21:43;;;;;;;;;;;6.30;99.90;;;;;;5044569;28;20504;-75
2022/01/25 12:24:40;;;;;;;74.10;29.20;;;6.40;99.90;;;;;;5049540;28;19905;-74
2022/01/25 12:29:46;;;;;;;68.85;29.23;;;6.30;99.90;;;;;;5057096;28;20033;-74
2022/01/25 12:32:23;;;;;;;67.05;29.40;;;6.20;99.90;;;;;;5060039;28;20119;-74
2022/01/25 12:35:14;;;;;;;65.97;26.63;;;6.20;99.90;;;;;;5057806;28;20037;-74
2022/01/25 12:37:46;;;;;;;74.65;28.42;;;6.30;99.90;;;;;;5056206;28;20021;-74
2022/01/25 12:40:26;;;;;;;69.00;27.33;;;6.30;99.90;;;;;;5055694;28;20497;-74
2022/01/25 12:42:53;;;;;;;83.13;29.30;;;6.10;99.90;;;;;;5056684;28;20021;-74
2022/01/25 12:45:24;;;;;;;69.75;29.08;;;6.10;99.90;;;;;;5037764;28;20286;-74
2022/01/25 12:47:53;;;;;;;71.05;30.33;;;6.00;99.90;;;;;;5056090;28;20111;-74
2022/01/25 12:50:19;;;;;;;73.88;29.02;;;6.00;99.90;;;;;;5055510;28;20401;-72
2022/01/25 12:52:46;;;;;;;74.35;30.88;;;6.00;99.90;;;;;;5037579;28;20129;-72
2022/01/25 12:55:12;;;;;;;67.13;28.33;;;6.00;99.90;;;;;;5055520;28;20112;-74
2022/01/25 12:57:48;;;;;;;71.50;27.75;;;6.00;99.90;;;;;;5055722;28;20017;-73
2022/01/25 13:00:15;;;;;;;65.00;28.05;;;6.00;99.90;;;;;;5053728;28;20474;-72
2022/01/25 13:02:41;;;;;;;72.30;28.73;;;6.10;99.90;;;;;;5052835;28;20020;-72
2022/01/25 13:05:19;;;;;;;67.15;27.70;;;6.00;99.90;;;;;;5054919;28;20095;-72
2022/01/25 13:07:45;;;;;;;70.65;29.20;;;6.00;99.90;;;;;;5056090;28;20047;-74
2022/01/25 13:10:22;;;;;;;78.47;29.63;;;5.90;99.90;;;;;;5053380;28;20021;-72
2022/01/25 13:12:56;;;;;;;72.15;28.90;;;6.00;99.90;;;;;;5054997;28;20036;-73
2022/01/25 13:16:12;;;;;;;70.70;26.67;;;6.00;99.90;;;;;;5056047;28;20468;-73
2022/01/25 13:18:14;;;;;;;69.97;27.17;;;6.10;99.90;;;;;;5044443;28;20043;-73
2022/01/25 13:20:43;;;;;;;77.32;29.73;;;6.00;99.90;;;;;;5055445;28;20036;-73
2022/01/25 13:23:09;;;;;;;65.82;27.88;;;6.00;99.90;;;;;;5055133;28;20119;-74
2022/01/25 13:28:37;;;;;;;77.28;29.52;;;5.90;99.90;;;;;;5055132;28;20391;-73
2022/01/25 13:31:11;;;;;;;73.88;28.13;;;5.90;99.90;;;;;;5037125;28;20390;-73
2022/01/25 13:33:36;;;;;;;72.05;27.60;;;6.00;99.90;;;;;;5055425;28;20040;-73
2022/01/25 13:36:04;;;;;;;70.60;29.20;;;5.90;99.90;;;;;;5055472;28;20108;-73
2022/01/25 13:38:32;;;;;;;72.03;28.35;;;5.90;99.90;;;;;;5055516;28;20071;-73
2022/01/25 13:41:15;;;;;;;73.47;29.27;;;6.00;99.90;;;;;;5054782;28;20021;-73
2022/01/25 13:46:13;;;;;;;74.10;26.50;;;6.20;99.90;;;;;;5054836;28;20033;-74
2022/01/25 13:48:39;;;;;;;72.07;25.95;;;6.20;99.90;;;;;;5055186;28;20111;-73
2022/01/25 13:51:08;;;;;;;73.15;27.40;;;6.10;99.90;;;;;;5036621;28;20474;-73
2022/01/25 13:53:36;;;;;;;72.63;28.92;;;6.00;99.90;;;;;;5054463;28;20104;-73
2022/01/25 13:56:04;;;;;;;63.20;27.55;;;5.90;99.90;;;;;;5054834;28;20025;-73
2022/01/25 13:58:35;;;;;;;65.93;26.77;;;6.00;99.90;;;;;;5054898;28;20040;-74
2022/01/25 14:01:03;;;;;;;;;;;6.10;99.90;;;;;;5055009;28;20053;-74
2022/01/25 14:03:38;;;;;;;62.70;25.45;;;6.10;99.90;;;;;;5054376;28;20354;-73
2022/01/25 14:06:40;;;;;;;64.72;26.83;;;6.30;99.90;;;;;;5054917;28;20025;-74
2022/01/25 14:09:11;;;;;;;62.00;26.45;;;6.40;99.90;;;;;;5055046;28;20120;-74
2022/01/25 14:25:12;;;;;;;67.80;24.88;;;6.20;99.90;;;;;;5055569;28;20116;-74
2022/01/25 14:27:52;;;;;;;63.03;24.52;;;6.10;99.90;;;;;;5054729;28;20110;-74
2022/01/25 14:30:19;;;;;;;68.05;25.55;;;6.10;99.90;;;;;;5055919;28;20029;-74
2022/01/25 14:35:32;;;;;;;62.03;24.83;;;6.10;99.90;;;;;;5072135;28;20063;-67
2022/01/25 14:37:59;;;;;;;54.63;21.83;;;6.10;99.90;;;;;;5056514;28;20485;-67
2022/01/25 14:40:26;;;;;;;56.83;24.33;;;6.10;99.90;;;;;;5078020;28;20036;-67